sensor_id;sensor_type;location;lat;lon;timestamp;P1;durP1;ratioP1;P2;durP2;ratioP2
6651;SDS011;3362;50.892;10.692;2023-03-14T00:01:47;0.90;;;0.40;;
6651;SDS011;3362;50.892;10.692;2023-03-14T00:04:13;0.40;;;0.40;;
6651;SDS011;3362;50.892;10.692;2023-03-14T00:06:40;1.35;;;0.60;;
6651;SDS011;3362;50.892;10.692;2023-03-14T00:09:06;0.65;;;0.30;;
6651;SDS011;3362;50.892;10.692;2023-03-14T00:11:33;0.80;;;0.40;;
6651;SDS011;3362;50.892;10.692;2023-03-14T00:14:00;0.52;;;0.40;;
6651;SDS011;3362;50.892;10.692;2023-03-14T00:16:26;0.22;;;0.22;;
6651;SDS011;3362;50.892;10.692;2023-03-14T00:18:52;1.50;;;0.40;;
6651;SDS011;3362;50.892;10.692;2023-03-14T00:21:18;2.08;;;0.57;;
6651;SDS011;3362;50.892;10.692;2023-03-14T00:23:44;0.52;;;0.52;;
6651;SDS011;3362;50.892;10.692;2023-03-14T00:26:12;0.40;;;0.40;;
6651;SDS011;3362;50.892;10.692;2023-03-14T00:28:40;2.85;;;0.70;;
6651;SDS011;3362;50.892;10.692;2023-03-14T00:31:07;1.95;;;0.60;;
6651;SDS011;3362;50.892;10.692;2023-03-14T00:33:33;1.00;;;0.60;;
6651;SDS011;3362;50.892;10.692;2023-03-14T00:36:00;0.30;;;0.30;;
6651;SDS011;3362;50.892;10.692;2023-03-14T00:38:27;2.25;;;0.60;;
6651;SDS011;3362;50.892;10.692;2023-03-14T00:40:53;0.47;;;0.47;;
6651;SDS011;3362;50.892;10.692;2023-03-14T00:43:20;0.40;;;0.40;;
6651;SDS011;3362;50.892;10.692;2023-03-14T00:45:48;1.23;;;0.43;;
6651;SDS011;3362;50.892;10.692;2023-03-14T00:48:15;1.02;;;0.40;;
6651;SDS011;3362;50.892;10.692;2023-03-14T00:50:41;0.80;;;0.50;;
6651;SDS011;3362;50.892;10.692;2023-03-14T00:53:07;3.03;;;0.47;;
6651;SDS011;3362;50.892;10.692;2023-03-14T00:55:35;5.25;;;0.20;;
6651;SDS011;3362;50.892;10.692;2023-03-14T00:58:02;0.40;;;0.20;;
6651;SDS011;3362;50.892;10.692;2023-03-14T01:00:28;0.88;;;0.52;;
6651;SDS011;3362;50.892;10.692;2023-03-14T01:02:55;0.50;;;0.45;;
6651;SDS011;3362;50.892;10.692;2023-03-14T01:05:22;0.47;;;0.35;;
6651;SDS011;3362;50.892;10.692;2023-03-14T01:07:48;0.88;;;0.65;;
6651;SDS011;3362;50.892;10.692;2023-03-14T01:10:15;1.08;;;0.52;;
6651;SDS011;3362;50.892;10.692;2023-03-14T01:12:41;4.68;;;0.50;;
6651;SDS011;3362;50.892;10.692;2023-03-14T01:15:07;0.22;;;0.22;;
6651;SDS011;3362;50.892;10.692;2023-03-14T01:17:33;1.13;;;0.38;;
6651;SDS011;3362;50.892;10.692;2023-03-14T01:20:01;1.85;;;0.60;;
6651;SDS011;3362;50.892;10.692;2023-03-14T01:22:29;0.60;;;0.60;;
6651;SDS011;3362;50.892;10.692;2023-03-14T01:24:55;0.60;;;0.40;;
6651;SDS011;3362;50.892;10.692;2023-03-14T01:27:21;3.03;;;0.45;;
6651;SDS011;3362;50.892;10.692;2023-03-14T01:29:48;2.85;;;0.50;;
6651;SDS011;3362;50.892;10.692;2023-03-14T01:32:14;1.25;;;0.45;;
6651;SDS011;3362;50.892;10.692;2023-03-14T01:34:40;0.90;;;0.38;;
6651;SDS011;3362;50.892;10.692;2023-03-14T01:37:08;0.52;;;0.32;;
6651;SDS011;3362;50.892;10.692;2023-03-14T01:39:34;0.52;;;0.52;;
6651;SDS011;3362;50.892;10.692;2023-03-14T01:42:00;0.45;;;0.38;;
6651;SDS011;3362;50.892;10.692;2023-03-14T01:44:27;2.00;;;0.35;;
6651;SDS011;3362;50.892;10.692;2023-03-14T01:46:53;0.85;;;0.30;;
6651;SDS011;3362;50.892;10.692;2023-03-14T01:49:21;0.28;;;0.28;;
6651;SDS011;3362;50.892;10.692;2023-03-14T01:51:49;1.88;;;0.63;;
6651;SDS011;3362;50.892;10.692;2023-03-14T01:54:20;1.17;;;0.50;;
6651;SDS011;3362;50.892;10.692;2023-03-14T01:56:48;2.13;;;0.57;;
6651;SDS011;3362;50.892;10.692;2023-03-14T01:59:15;1.35;;;0.40;;
6651;SDS011;3362;50.892;10.692;2023-03-14T02:01:43;2.75;;;0.43;;
6651;SDS011;3362;50.892;10.692;2023-03-14T02:04:09;1.02;;;0.30;;
6651;SDS011;3362;50.892;10.692;2023-03-14T02:06:40;3.70;;;0.63;;
6651;SDS011;3362;50.892;10.692;2023-03-14T02:09:08;1.08;;;0.60;;
6651;SDS011;3362;50.892;10.692;2023-03-14T02:11:35;0.50;;;0.50;;
6651;SDS011;3362;50.892;10.692;2023-03-14T02:14:02;2.45;;;0.43;;
6651;SDS011;3362;50.892;10.692;2023-03-14T02:16:28;0.47;;;0.40;;
6651;SDS011;3362;50.892;10.692;2023-03-14T02:18:54;0.80;;;0.50;;
6651;SDS011;3362;50.892;10.692;2023-03-14T02:21:23;1.55;;;0.38;;
6651;SDS011;3362;50.892;10.692;2023-03-14T02:23:53;1.48;;;0.63;;
6651;SDS011;3362;50.892;10.692;2023-03-14T02:26:22;0.70;;;0.60;;
6651;SDS011;3362;50.892;10.692;2023-03-14T02:28:51;0.85;;;0.65;;
6651;SDS011;3362;50.892;10.692;2023-03-14T02:31:20;2.47;;;0.70;;
6651;SDS011;3362;50.892;10.692;2023-03-14T02:33:47;4.47;;;0.80;;
6651;SDS011;3362;50.892;10.692;2023-03-14T02:36:13;2.15;;;0.82;;
6651;SDS011;3362;50.892;10.692;2023-03-14T02:38:41;1.80;;;0.60;;
6651;SDS011;3362;50.892;10.692;2023-03-14T02:41:10;2.20;;;0.65;;
6651;SDS011;3362;50.892;10.692;2023-03-14T02:43:36;1.10;;;0.40;;
6651;SDS011;3362;50.892;10.692;2023-03-14T02:46:04;2.17;;;0.52;;
6651;SDS011;3362;50.892;10.692;2023-03-14T02:48:31;2.15;;;0.40;;
6651;SDS011;3362;50.892;10.692;2023-03-14T02:50:59;4.60;;;0.73;;
6651;SDS011;3362;50.892;10.692;2023-03-14T02:53:26;2.33;;;0.43;;
6651;SDS011;3362;50.892;10.692;2023-03-14T02:55:54;2.47;;;0.63;;
6651;SDS011;3362;50.892;10.692;2023-03-14T02:58:20;1.85;;;0.70;;
6651;SDS011;3362;50.892;10.692;2023-03-14T03:00:46;0.70;;;0.65;;
6651;SDS011;3362;50.892;10.692;2023-03-14T03:03:14;2.80;;;0.52;;
6651;SDS011;3362;50.892;10.692;2023-03-14T03:05:40;2.05;;;0.73;;
6651;SDS011;3362;50.892;10.692;2023-03-14T03:08:07;2.05;;;0.65;;
6651;SDS011;3362;50.892;10.692;2023-03-14T03:10:33;1.05;;;0.80;;
6651;SDS011;3362;50.892;10.692;2023-03-14T03:13:00;1.25;;;0.52;;
6651;SDS011;3362;50.892;10.692;2023-03-14T03:15:26;3.92;;;0.43;;
6651;SDS011;3362;50.892;10.692;2023-03-14T03:17:53;3.83;;;0.82;;
6651;SDS011;3362;50.892;10.692;2023-03-14T03:20:20;0.90;;;0.60;;
6651;SDS011;3362;50.892;10.692;2023-03-14T03:22:46;1.38;;;0.47;;
6651;SDS011;3362;50.892;10.692;2023-03-14T03:25:14;1.27;;;0.90;;
6651;SDS011;3362;50.892;10.692;2023-03-14T03:27:41;0.55;;;0.52;;
6651;SDS011;3362;50.892;10.692;2023-03-14T03:30:07;4.53;;;0.75;;
6651;SDS011;3362;50.892;10.692;2023-03-14T03:32:34;3.67;;;0.63;;
6651;SDS011;3362;50.892;10.692;2023-03-14T03:35:01;0.82;;;0.55;;
6651;SDS011;3362;50.892;10.692;2023-03-14T03:37:29;2.80;;;1.00;;
6651;SDS011;3362;50.892;10.692;2023-03-14T03:39:55;1.02;;;0.45;;
6651;SDS011;3362;50.892;10.692;2023-03-14T03:42:21;3.45;;;0.70;;
6651;SDS011;3362;50.892;10.692;2023-03-14T03:44:48;1.58;;;0.68;;
6651;SDS011;3362;50.892;10.692;2023-03-14T03:47:14;0.40;;;0.40;;
6651;SDS011;3362;50.892;10.692;2023-03-14T03:49:41;2.17;;;0.75;;
6651;SDS011;3362;50.892;10.692;2023-03-14T03:52:07;2.35;;;0.60;;
6651;SDS011;3362;50.892;10.692;2023-03-14T03:54:35;3.22;;;0.50;;
6651;SDS011;3362;50.892;10.692;2023-03-14T03:57:01;1.73;;;0.63;;
6651;SDS011;3362;50.892;10.692;2023-03-14T03:59:28;1.77;;;0.55;;
6651;SDS011;3362;50.892;10.692;2023-03-14T04:01:54;2.53;;;0.50;;
6651;SDS011;3362;50.892;10.692;2023-03-14T04:04:20;1.20;;;0.73;;
6651;SDS011;3362;50.892;10.692;2023-03-14T04:06:46;1.35;;;0.57;;
6651;SDS011;3362;50.892;10.692;2023-03-14T04:09:14;3.55;;;0.93;;
6651;SDS011;3362;50.892;10.692;2023-03-14T04:11:41;1.38;;;0.80;;
6651;SDS011;3362;50.892;10.692;2023-03-14T04:14:08;2.70;;;0.47;;
6651;SDS011;3362;50.892;10.692;2023-03-14T04:16:34;0.82;;;0.55;;
6651;SDS011;3362;50.892;10.692;2023-03-14T04:19:00;1.00;;;0.43;;
6651;SDS011;3362;50.892;10.692;2023-03-14T04:21:27;2.47;;;0.73;;
6651;SDS011;3362;50.892;10.692;2023-03-14T04:23:53;2.30;;;0.77;;
6651;SDS011;3362;50.892;10.692;2023-03-14T04:26:19;4.60;;;0.30;;
6651;SDS011;3362;50.892;10.692;2023-03-14T04:28:47;5.75;;;0.88;;
6651;SDS011;3362;50.892;10.692;2023-03-14T04:31:14;1.77;;;0.45;;
6651;SDS011;3362;50.892;10.692;2023-03-14T04:33:40;1.65;;;0.40;;
6651;SDS011;3362;50.892;10.692;2023-03-14T04:36:07;0.90;;;0.55;;
6651;SDS011;3362;50.892;10.692;2023-03-14T04:38:34;0.93;;;0.40;;
6651;SDS011;3362;50.892;10.692;2023-03-14T04:41:00;1.23;;;0.38;;
6651;SDS011;3362;50.892;10.692;2023-03-14T04:43:26;2.00;;;0.63;;
6651;SDS011;3362;50.892;10.692;2023-03-14T04:45:54;0.70;;;0.47;;
6651;SDS011;3362;50.892;10.692;2023-03-14T04:48:21;2.63;;;0.60;;
6651;SDS011;3362;50.892;10.692;2023-03-14T04:50:47;1.02;;;0.52;;
6651;SDS011;3362;50.892;10.692;2023-03-14T04:53:14;1.17;;;0.50;;
6651;SDS011;3362;50.892;10.692;2023-03-14T04:55:40;0.70;;;0.47;;
6651;SDS011;3362;50.892;10.692;2023-03-14T04:58:06;1.05;;;0.52;;
6651;SDS011;3362;50.892;10.692;2023-03-14T05:00:32;5.15;;;0.55;;
6651;SDS011;3362;50.892;10.692;2023-03-14T05:03:00;0.57;;;0.43;;
6651;SDS011;3362;50.892;10.692;2023-03-14T05:05:26;1.35;;;0.45;;
6651;SDS011;3362;50.892;10.692;2023-03-14T05:07:52;2.90;;;0.82;;
6651;SDS011;3362;50.892;10.692;2023-03-14T05:10:19;1.05;;;0.50;;
6651;SDS011;3362;50.892;10.692;2023-03-14T05:12:45;5.65;;;0.70;;
6651;SDS011;3362;50.892;10.692;2023-03-14T05:15:11;4.65;;;0.70;;
6651;SDS011;3362;50.892;10.692;2023-03-14T05:17:37;0.57;;;0.55;;
6651;SDS011;3362;50.892;10.692;2023-03-14T05:20:05;2.20;;;0.60;;
6651;SDS011;3362;50.892;10.692;2023-03-14T05:22:33;2.03;;;0.68;;
6651;SDS011;3362;50.892;10.692;2023-03-14T05:25:00;2.67;;;0.52;;
6651;SDS011;3362;50.892;10.692;2023-03-14T05:27:26;2.85;;;0.63;;
6651;SDS011;3362;50.892;10.692;2023-03-14T05:29:52;1.67;;;0.47;;
6651;SDS011;3362;50.892;10.692;2023-03-14T05:32:18;0.52;;;0.40;;
6651;SDS011;3362;50.892;10.692;2023-03-14T05:34:45;1.77;;;0.60;;
6651;SDS011;3362;50.892;10.692;2023-03-14T05:37:12;1.15;;;0.50;;
6651;SDS011;3362;50.892;10.692;2023-03-14T05:39:39;0.20;;;0.20;;
6651;SDS011;3362;50.892;10.692;2023-03-14T05:42:05;0.95;;;0.70;;
6651;SDS011;3362;50.892;10.692;2023-03-14T05:44:31;3.83;;;0.68;;
6651;SDS011;3362;50.892;10.692;2023-03-14T05:46:57;2.10;;;0.50;;
6651;SDS011;3362;50.892;10.692;2023-03-14T05:49:23;0.88;;;0.45;;
6651;SDS011;3362;50.892;10.692;2023-03-14T05:51:50;0.65;;;0.40;;
6651;SDS011;3362;50.892;10.692;2023-03-14T05:54:18;3.55;;;0.73;;
6651;SDS011;3362;50.892;10.692;2023-03-14T05:56:44;2.45;;;0.98;;
6651;SDS011;3362;50.892;10.692;2023-03-14T05:59:10;0.77;;;0.57;;
6651;SDS011;3362;50.892;10.692;2023-03-14T06:01:38;2.00;;;0.30;;
6651;SDS011;3362;50.892;10.692;2023-03-14T06:04:05;0.20;;;0.20;;
6651;SDS011;3362;50.892;10.692;2023-03-14T06:06:31;3.20;;;0.43;;
6651;SDS011;3362;50.892;10.692;2023-03-14T06:08:57;2.30;;;0.63;;
6651;SDS011;3362;50.892;10.692;2023-03-14T06:11:25;0.75;;;0.30;;
6651;SDS011;3362;50.892;10.692;2023-03-14T06:13:51;4.63;;;0.60;;
6651;SDS011;3362;50.892;10.692;2023-03-14T06:16:17;3.50;;;0.50;;
6651;SDS011;3362;50.892;10.692;2023-03-14T06:18:43;1.30;;;0.40;;
6651;SDS011;3362;50.892;10.692;2023-03-14T06:21:11;1.08;;;0.47;;
6651;SDS011;3362;50.892;10.692;2023-03-14T06:23:37;3.72;;;0.40;;
6651;SDS011;3362;50.892;10.692;2023-03-14T06:26:04;1.80;;;0.40;;
6651;SDS011;3362;50.892;10.692;2023-03-14T06:28:31;7.20;;;0.70;;
6651;SDS011;3362;50.892;10.692;2023-03-14T06:30:58;3.83;;;0.38;;
6651;SDS011;3362;50.892;10.692;2023-03-14T06:33:24;2.45;;;0.40;;
6651;SDS011;3362;50.892;10.692;2023-03-14T06:35:50;1.50;;;0.50;;
6651;SDS011;3362;50.892;10.692;2023-03-14T06:38:17;1.60;;;0.43;;
6651;SDS011;3362;50.892;10.692;2023-03-14T06:40:43;1.60;;;0.55;;
6651;SDS011;3362;50.892;10.692;2023-03-14T06:43:09;2.50;;;0.60;;
6651;SDS011;3362;50.892;10.692;2023-03-14T06:45:37;2.40;;;0.60;;
6651;SDS011;3362;50.892;10.692;2023-03-14T06:48:03;3.92;;;0.57;;
6651;SDS011;3362;50.892;10.692;2023-03-14T06:50:29;4.15;;;0.50;;
6651;SDS011;3362;50.892;10.692;2023-03-14T06:52:55;3.15;;;0.43;;
6651;SDS011;3362;50.892;10.692;2023-03-14T06:55:22;1.10;;;0.40;;
6651;SDS011;3362;50.892;10.692;2023-03-14T06:57:48;1.95;;;0.55;;
6651;SDS011;3362;50.892;10.692;2023-03-14T07:00:14;2.35;;;0.70;;
6651;SDS011;3362;50.892;10.692;2023-03-14T07:02:42;2.10;;;0.52;;
6651;SDS011;3362;50.892;10.692;2023-03-14T07:05:08;2.17;;;0.28;;
6651;SDS011;3362;50.892;10.692;2023-03-14T07:07:35;1.33;;;0.38;;
6651;SDS011;3362;50.892;10.692;2023-03-14T07:10:02;0.63;;;0.30;;
6651;SDS011;3362;50.892;10.692;2023-03-14T07:12:28;0.63;;;0.32;;
6651;SDS011;3362;50.892;10.692;2023-03-14T07:14:54;0.52;;;0.30;;
6651;SDS011;3362;50.892;10.692;2023-03-14T07:17:20;1.05;;;0.50;;
6651;SDS011;3362;50.892;10.692;2023-03-14T07:19:48;1.02;;;0.30;;
6651;SDS011;3362;50.892;10.692;2023-03-14T07:22:14;3.47;;;0.55;;
6651;SDS011;3362;50.892;10.692;2023-03-14T07:24:40;1.80;;;0.20;;
6651;SDS011;3362;50.892;10.692;2023-03-14T07:27:06;1.05;;;0.50;;
6651;SDS011;3362;50.892;10.692;2023-03-14T07:29:32;0.55;;;0.28;;
6651;SDS011;3362;50.892;10.692;2023-03-14T07:31:59;3.83;;;0.40;;
6651;SDS011;3362;50.892;10.692;2023-03-14T07:34:25;1.05;;;0.20;;
6651;SDS011;3362;50.892;10.692;2023-03-14T07:36:52;0.20;;;0.20;;
6651;SDS011;3362;50.892;10.692;2023-03-14T07:39:18;0.20;;;0.20;;
6651;SDS011;3362;50.892;10.692;2023-03-14T07:41:45;6.32;;;0.40;;
6651;SDS011;3362;50.892;10.692;2023-03-14T07:44:11;0.70;;;0.25;;
6651;SDS011;3362;50.892;10.692;2023-03-14T07:46:37;2.50;;;0.30;;
6651;SDS011;3362;50.892;10.692;2023-03-14T07:49:03;0.28;;;0.20;;
6651;SDS011;3362;50.892;10.692;2023-03-14T07:51:29;3.30;;;0.40;;
6651;SDS011;3362;50.892;10.692;2023-03-14T07:53:57;0.40;;;0.20;;
6651;SDS011;3362;50.892;10.692;2023-03-14T07:56:23;0.08;;;0.08;;
6651;SDS011;3362;50.892;10.692;2023-03-14T07:58:49;0.70;;;0.30;;
6651;SDS011;3362;50.892;10.692;2023-03-14T08:01:15;2.45;;;0.38;;
6651;SDS011;3362;50.892;10.692;2023-03-14T08:03:42;1.95;;;0.40;;
6651;SDS011;3362;50.892;10.692;2023-03-14T08:06:08;1.30;;;0.47;;
6651;SDS011;3362;50.892;10.692;2023-03-14T08:08:34;0.77;;;0.47;;
6651;SDS011;3362;50.892;10.692;2023-03-14T08:11:05;0.10;;;0.10;;
6651;SDS011;3362;50.892;10.692;2023-03-14T08:13:33;1.25;;;0.35;;
6651;SDS011;3362;50.892;10.692;2023-03-14T08:16:00;0.82;;;0.20;;
6651;SDS011;3362;50.892;10.692;2023-03-14T08:18:26;0.20;;;0.20;;
6651;SDS011;3362;50.892;10.692;2023-03-14T08:20:52;1.90;;;0.30;;
6651;SDS011;3362;50.892;10.692;2023-03-14T08:23:18;0.20;;;0.20;;
6651;SDS011;3362;50.892;10.692;2023-03-14T08:25:45;0.52;;;0.30;;
6651;SDS011;3362;50.892;10.692;2023-03-14T08:28:12;2.42;;;0.57;;
6651;SDS011;3362;50.892;10.692;2023-03-14T08:30:38;0.30;;;0.20;;
6651;SDS011;3362;50.892;10.692;2023-03-14T08:33:04;0.22;;;0.22;;
6651;SDS011;3362;50.892;10.692;2023-03-14T08:35:31;0.30;;;0.30;;
6651;SDS011;3362;50.892;10.692;2023-03-14T08:37:57;0.38;;;0.22;;
6651;SDS011;3362;50.892;10.692;2023-03-14T08:40:23;0.85;;;0.30;;
6651;SDS011;3362;50.892;10.692;2023-03-14T08:42:49;0.17;;;0.17;;
6651;SDS011;3362;50.892;10.692;2023-03-14T08:45:17;0.45;;;0.20;;
6651;SDS011;3362;50.892;10.692;2023-03-14T08:47:43;0.13;;;0.13;;
6651;SDS011;3362;50.892;10.692;2023-03-14T08:50:10;2.22;;;0.73;;
6651;SDS011;3362;50.892;10.692;2023-03-14T08:52:36;0.47;;;0.22;;
6651;SDS011;3362;50.892;10.692;2023-03-14T08:55:05;1.15;;;0.20;;
6651;SDS011;3362;50.892;10.692;2023-03-14T08:57:31;0.20;;;0.10;;
6651;SDS011;3362;50.892;10.692;2023-03-14T08:59:58;0.63;;;0.10;;
6651;SDS011;3362;50.892;10.692;2023-03-14T09:02:25;0.52;;;0.47;;
6651;SDS011;3362;50.892;10.692;2023-03-14T09:04:52;1.40;;;0.20;;
6651;SDS011;3362;50.892;10.692;2023-03-14T09:07:19;0.65;;;0.17;;
6651;SDS011;3362;50.892;10.692;2023-03-14T09:09:45;3.92;;;0.35;;
6651;SDS011;3362;50.892;10.692;2023-03-14T09:12:11;0.30;;;0.13;;
6651;SDS011;3362;50.892;10.692;2023-03-14T09:14:37;0.95;;;0.20;;
6651;SDS011;3362;50.892;10.692;2023-03-14T09:17:04;0.93;;;0.90;;
6651;SDS011;3362;50.892;10.692;2023-03-14T09:19:31;1.10;;;0.40;;
6651;SDS011;3362;50.892;10.692;2023-03-14T09:21:57;0.98;;;0.50;;
6651;SDS011;3362;50.892;10.692;2023-03-14T09:24:24;1.20;;;0.10;;
6651;SDS011;3362;50.892;10.692;2023-03-14T09:26:50;0.47;;;0.22;;
6651;SDS011;3362;50.892;10.692;2023-03-14T09:29:16;1.17;;;0.20;;
6651;SDS011;3362;50.892;10.692;2023-03-14T09:31:43;0.10;;;0.10;;
6651;SDS011;3362;50.892;10.692;2023-03-14T09:34:09;0.10;;;0.10;;
6651;SDS011;3362;50.892;10.692;2023-03-14T09:36:36;0.80;;;0.17;;
6651;SDS011;3362;50.892;10.692;2023-03-14T09:39:04;0.08;;;0.08;;
6651;SDS011;3362;50.892;10.692;2023-03-14T09:41:31;0.65;;;0.40;;
6651;SDS011;3362;50.892;10.692;2023-03-14T09:44:00;0.63;;;0.10;;
6651;SDS011;3362;50.892;10.692;2023-03-14T09:46:28;0.08;;;0.08;;
6651;SDS011;3362;50.892;10.692;2023-03-14T09:48:55;0.00;;;0.00;;
6651;SDS011;3362;50.892;10.692;2023-03-14T09:51:21;0.10;;;0.10;;
6651;SDS011;3362;50.892;10.692;2023-03-14T09:53:50;0.10;;;0.10;;
6651;SDS011;3362;50.892;10.692;2023-03-14T09:56:17;1.08;;;0.10;;
6651;SDS011;3362;50.892;10.692;2023-03-14T09:58:45;0.40;;;0.15;;
6651;SDS011;3362;50.892;10.692;2023-03-14T10:01:14;0.10;;;0.10;;
6651;SDS011;3362;50.892;10.692;2023-03-14T10:03:41;0.00;;;0.00;;
6651;SDS011;3362;50.892;10.692;2023-03-14T10:06:10;0.10;;;0.10;;
6651;SDS011;3362;50.892;10.692;2023-03-14T10:08:38;0.03;;;0.03;;
6651;SDS011;3362;50.892;10.692;2023-03-14T10:11:06;1.05;;;0.20;;
6651;SDS011;3362;50.892;10.692;2023-03-14T10:13:32;0.52;;;0.10;;
6651;SDS011;3362;50.892;10.692;2023-03-14T10:15:59;0.13;;;0.13;;
6651;SDS011;3362;50.892;10.692;2023-03-14T10:18:27;0.15;;;0.15;;
6651;SDS011;3362;50.892;10.692;2023-03-14T10:21:02;0.75;;;0.20;;
6651;SDS011;3362;50.892;10.692;2023-03-14T10:23:29;0.10;;;0.05;;
6651;SDS011;3362;50.892;10.692;2023-03-14T10:26:01;0.15;;;0.05;;
6651;SDS011;3362;50.892;10.692;2023-03-14T10:28:31;0.10;;;0.10;;
6651;SDS011;3362;50.892;10.692;2023-03-14T10:30:58;0.30;;;0.30;;
6651;SDS011;3362;50.892;10.692;2023-03-14T10:33:25;0.25;;;0.10;;
6651;SDS011;3362;50.892;10.692;2023-03-14T10:35:52;0.52;;;0.17;;
6651;SDS011;3362;50.892;10.692;2023-03-14T10:38:19;0.90;;;0.13;;
6651;SDS011;3362;50.892;10.692;2023-03-14T10:40:49;0.20;;;0.10;;
6651;SDS011;3362;50.892;10.692;2023-03-14T10:43:19;0.13;;;0.13;;
6651;SDS011;3362;50.892;10.692;2023-03-14T10:45:50;0.35;;;0.17;;
6651;SDS011;3362;50.892;10.692;2023-03-14T10:48:18;0.08;;;0.08;;
6651;SDS011;3362;50.892;10.692;2023-03-14T10:50:48;0.45;;;0.10;;
6651;SDS011;3362;50.892;10.692;2023-03-14T10:53:16;0.00;;;0.00;;
6651;SDS011;3362;50.892;10.692;2023-03-14T10:55:43;0.32;;;0.10;;
6651;SDS011;3362;50.892;10.692;2023-03-14T10:58:20;0.63;;;0.15;;
6651;SDS011;3362;50.892;10.692;2023-03-14T11:00:46;0.00;;;0.00;;
6651;SDS011;3362;50.892;10.692;2023-03-14T11:03:16;0.15;;;0.15;;
6651;SDS011;3362;50.892;10.692;2023-03-14T11:05:43;8.00;;;0.47;;
6651;SDS011;3362;50.892;10.692;2023-03-14T11:08:14;0.10;;;0.10;;
6651;SDS011;3362;50.892;10.692;2023-03-14T11:10:44;1.38;;;0.35;;
6651;SDS011;3362;50.892;10.692;2023-03-14T11:13:15;0.05;;;0.05;;
6651;SDS011;3362;50.892;10.692;2023-03-14T11:15:43;0.95;;;0.10;;
6651;SDS011;3362;50.892;10.692;2023-03-14T11:18:19;0.13;;;0.13;;
6651;SDS011;3362;50.892;10.692;2023-03-14T11:20:50;0.30;;;0.20;;
6651;SDS011;3362;50.892;10.692;2023-03-14T11:23:17;0.35;;;0.20;;
6651;SDS011;3362;50.892;10.692;2023-03-14T11:25:47;0.17;;;0.10;;
6651;SDS011;3362;50.892;10.692;2023-03-14T11:28:17;0.10;;;0.10;;
6651;SDS011;3362;50.892;10.692;2023-03-14T11:30:46;0.38;;;0.20;;
6651;SDS011;3362;50.892;10.692;2023-03-14T11:33:16;0.45;;;0.28;;
6651;SDS011;3362;50.892;10.692;2023-03-14T11:35:45;0.65;;;0.15;;
6651;SDS011;3362;50.892;10.692;2023-03-14T11:38:15;0.13;;;0.13;;
6651;SDS011;3362;50.892;10.692;2023-03-14T11:40:41;0.10;;;0.10;;
6651;SDS011;3362;50.892;10.692;2023-03-14T11:43:10;0.15;;;0.13;;
6651;SDS011;3362;50.892;10.692;2023-03-14T11:45:38;0.52;;;0.13;;
6651;SDS011;3362;50.892;10.692;2023-03-14T11:48:13;0.15;;;0.13;;
6651;SDS011;3362;50.892;10.692;2023-03-14T11:50:41;0.10;;;0.10;;
6651;SDS011;3362;50.892;10.692;2023-03-14T11:53:11;1.10;;;0.10;;
6651;SDS011;3362;50.892;10.692;2023-03-14T11:55:40;0.57;;;0.10;;
6651;SDS011;3362;50.892;10.692;2023-03-14T11:58:09;0.60;;;0.40;;
6651;SDS011;3362;50.892;10.692;2023-03-14T12:00:37;1.65;;;0.10;;
6651;SDS011;3362;50.892;10.692;2023-03-14T12:03:05;1.30;;;0.10;;
6651;SDS011;3362;50.892;10.692;2023-03-14T12:05:39;0.10;;;0.10;;
6651;SDS011;3362;50.892;10.692;2023-03-14T12:10:58;1.00;;;0.20;;
6651;SDS011;3362;50.892;10.692;2023-03-14T12:13:27;1.05;;;0.10;;
6651;SDS011;3362;50.892;10.692;2023-03-14T12:15:55;0.52;;;0.30;;
6651;SDS011;3362;50.892;10.692;2023-03-14T12:18:25;0.10;;;0.10;;
6651;SDS011;3362;50.892;10.692;2023-03-14T12:20:53;0.00;;;0.00;;
6651;SDS011;3362;50.892;10.692;2023-03-14T12:23:20;0.10;;;0.10;;
6651;SDS011;3362;50.892;10.692;2023-03-14T12:25:46;0.35;;;0.10;;
6651;SDS011;3362;50.892;10.692;2023-03-14T12:28:20;1.08;;;0.30;;
6651;SDS011;3362;50.892;10.692;2023-03-14T12:30:47;0.10;;;0.10;;
6651;SDS011;3362;50.892;10.692;2023-03-14T12:35:59;0.10;;;0.10;;
6651;SDS011;3362;50.892;10.692;2023-03-14T12:38:28;0.30;;;0.30;;
6651;SDS011;3362;50.892;10.692;2023-03-14T12:40:57;0.00;;;0.00;;
6651;SDS011;3362;50.892;10.692;2023-03-14T12:43:27;0.10;;;0.10;;
6651;SDS011;3362;50.892;10.692;2023-03-14T12:46:06;0.17;;;0.10;;
6651;SDS011;3362;50.892;10.692;2023-03-14T12:48:33;1.55;;;0.30;;
6651;SDS011;3362;50.892;10.692;2023-03-14T12:51:00;0.10;;;0.10;;
6651;SDS011;3362;50.892;10.692;2023-03-14T12:53:41;0.70;;;0.20;;
6651;SDS011;3362;50.892;10.692;2023-03-14T12:56:17;0.20;;;0.10;;
6651;SDS011;3362;50.892;10.692;2023-03-14T12:58:49;0.15;;;0.05;;
6651;SDS011;3362;50.892;10.692;2023-03-14T13:01:20;0.25;;;0.25;;
6651;SDS011;3362;50.892;10.692;2023-03-14T13:03:47;0.20;;;0.20;;
6651;SDS011;3362;50.892;10.692;2023-03-14T13:08:56;0.10;;;0.10;;
6651;SDS011;3362;50.892;10.692;2023-03-14T13:11:22;0.40;;;0.30;;
6651;SDS011;3362;50.892;10.692;2023-03-14T13:13:52;0.30;;;0.17;;
6651;SDS011;3362;50.892;10.692;2023-03-14T13:16:22;0.08;;;0.08;;
6651;SDS011;3362;50.892;10.692;2023-03-14T13:18:48;0.28;;;0.13;;
6651;SDS011;3362;50.892;10.692;2023-03-14T13:21:17;0.50;;;0.20;;
6651;SDS011;3362;50.892;10.692;2023-03-14T13:23:54;0.35;;;0.10;;
6651;SDS011;3362;50.892;10.692;2023-03-14T13:26:21;0.10;;;0.10;;
6651;SDS011;3362;50.892;10.692;2023-03-14T13:28:50;4.32;;;0.20;;
6651;SDS011;3362;50.892;10.692;2023-03-14T13:31:19;0.05;;;0.05;;
6651;SDS011;3362;50.892;10.692;2023-03-14T13:33:46;0.70;;;0.30;;
6651;SDS011;3362;50.892;10.692;2023-03-14T13:36:13;0.30;;;0.15;;
6651;SDS011;3362;50.892;10.692;2023-03-14T13:38:39;0.10;;;0.00;;
6651;SDS011;3362;50.892;10.692;2023-03-14T13:41:06;0.10;;;0.10;;
6651;SDS011;3362;50.892;10.692;2023-03-14T13:43:34;0.90;;;0.20;;
6651;SDS011;3362;50.892;10.692;2023-03-14T13:46:03;0.20;;;0.20;;
6651;SDS011;3362;50.892;10.692;2023-03-14T13:48:31;0.10;;;0.10;;
6651;SDS011;3362;50.892;10.692;2023-03-14T13:50:59;0.05;;;0.00;;
6651;SDS011;3362;50.892;10.692;2023-03-14T13:53:26;0.10;;;0.10;;
6651;SDS011;3362;50.892;10.692;2023-03-14T13:55:53;0.82;;;0.20;;
6651;SDS011;3362;50.892;10.692;2023-03-14T13:58:20;0.15;;;0.10;;
6651;SDS011;3362;50.892;10.692;2023-03-14T14:00:53;1.33;;;0.70;;
6651;SDS011;3362;50.892;10.692;2023-03-14T14:03:21;1.05;;;0.93;;
6651;SDS011;3362;50.892;10.692;2023-03-14T14:05:48;1.33;;;0.73;;
6651;SDS011;3362;50.892;10.692;2023-03-14T14:08:14;2.33;;;1.20;;
6651;SDS011;3362;50.892;10.692;2023-03-14T14:10:40;2.13;;;0.90;;
6651;SDS011;3362;50.892;10.692;2023-03-14T14:13:08;0.88;;;0.40;;
6651;SDS011;3362;50.892;10.692;2023-03-14T14:15:37;5.47;;;1.40;;
6651;SDS011;3362;50.892;10.692;2023-03-14T14:18:05;5.55;;;0.47;;
6651;SDS011;3362;50.892;10.692;2023-03-14T14:20:37;2.83;;;0.32;;
6651;SDS011;3362;50.892;10.692;2023-03-14T14:23:04;0.63;;;0.30;;
6651;SDS011;3362;50.892;10.692;2023-03-14T14:25:31;1.17;;;0.30;;
6651;SDS011;3362;50.892;10.692;2023-03-14T14:27:58;0.20;;;0.10;;
6651;SDS011;3362;50.892;10.692;2023-03-14T14:30:26;2.72;;;0.68;;
6651;SDS011;3362;50.892;10.692;2023-03-14T14:32:52;0.60;;;0.20;;
6651;SDS011;3362;50.892;10.692;2023-03-14T14:35:22;0.85;;;0.30;;
6651;SDS011;3362;50.892;10.692;2023-03-14T14:37:50;0.20;;;0.20;;
6651;SDS011;3362;50.892;10.692;2023-03-14T14:40:17;0.25;;;0.10;;
6651;SDS011;3362;50.892;10.692;2023-03-14T14:42:45;2.08;;;0.60;;
6651;SDS011;3362;50.892;10.692;2023-03-14T14:45:13;0.15;;;0.15;;
6651;SDS011;3362;50.892;10.692;2023-03-14T14:47:47;1.38;;;0.40;;
6651;SDS011;3362;50.892;10.692;2023-03-14T14:50:21;2.00;;;0.40;;
6651;SDS011;3362;50.892;10.692;2023-03-14T14:52:55;0.00;;;0.00;;
6651;SDS011;3362;50.892;10.692;2023-03-14T14:55:22;0.10;;;0.10;;
6651;SDS011;3362;50.892;10.692;2023-03-14T14:57:49;0.10;;;0.10;;
6651;SDS011;3362;50.892;10.692;2023-03-14T15:00:19;0.28;;;0.17;;
6651;SDS011;3362;50.892;10.692;2023-03-14T15:02:46;1.25;;;0.28;;
6651;SDS011;3362;50.892;10.692;2023-03-14T15:05:13;0.20;;;0.10;;
6651;SDS011;3362;50.892;10.692;2023-03-14T15:07:39;1.45;;;0.17;;
6651;SDS011;3362;50.892;10.692;2023-03-14T15:10:09;0.20;;;0.20;;